sensor_id;sensor_type;location;lat;lon;timestamp;P1;durP1;ratioP1;P2;durP2;ratioP2
75429;SDS011;64127;51.488;5.462;2023-04-24T00:01:41;10.17;;;9.17;;
75429;SDS011;64127;51.488;5.462;2023-04-24T00:04:14;10.47;;;9.40;;
75429;SDS011;64127;51.488;5.462;2023-04-24T00:06:48;10.30;;;9.20;;
75429;SDS011;64127;51.488;5.462;2023-04-24T00:09:25;11.13;;;9.83;;
75429;SDS011;64127;51.488;5.462;2023-04-24T00:11:57;12.67;;;9.50;;
75429;SDS011;64127;51.488;5.462;2023-04-24T00:14:30;10.83;;;9.70;;
75429;SDS011;64127;51.488;5.462;2023-04-24T00:17:03;10.23;;;9.33;;
75429;SDS011;64127;51.488;5.462;2023-04-24T00:19:36;11.53;;;10.33;;
75429;SDS011;64127;51.488;5.462;2023-04-24T00:22:08;11.83;;;10.57;;
75429;SDS011;64127;51.488;5.462;2023-04-24T00:24:40;12.37;;;10.43;;
75429;SDS011;64127;51.488;5.462;2023-04-24T00:27:12;12.77;;;11.07;;
75429;SDS011;64127;51.488;5.462;2023-04-24T00:29:44;13.27;;;11.63;;
75429;SDS011;64127;51.488;5.462;2023-04-24T00:32:16;11.77;;;10.50;;
75429;SDS011;64127;51.488;5.462;2023-04-24T00:34:49;12.23;;;10.97;;
75429;SDS011;64127;51.488;5.462;2023-04-24T00:37:21;13.70;;;11.17;;
75429;SDS011;64127;51.488;5.462;2023-04-24T00:39:53;12.70;;;11.37;;
75429;SDS011;64127;51.488;5.462;2023-04-24T00:42:25;12.67;;;11.37;;
75429;SDS011;64127;51.488;5.462;2023-04-24T00:44:58;13.97;;;12.50;;
75429;SDS011;64127;51.488;5.462;2023-04-24T00:47:32;13.53;;;12.13;;
75429;SDS011;64127;51.488;5.462;2023-04-24T00:50:06;13.40;;;11.63;;
75429;SDS011;64127;51.488;5.462;2023-04-24T00:52:39;12.83;;;11.53;;
75429;SDS011;64127;51.488;5.462;2023-04-24T00:55:12;14.43;;;12.00;;
75429;SDS011;64127;51.488;5.462;2023-04-24T00:57:44;14.90;;;12.60;;
75429;SDS011;64127;51.488;5.462;2023-04-24T01:00:17;13.70;;;11.83;;
75429;SDS011;64127;51.488;5.462;2023-04-24T01:02:50;16.37;;;11.50;;
75429;SDS011;64127;51.488;5.462;2023-04-24T01:05:24;14.67;;;12.70;;
75429;SDS011;64127;51.488;5.462;2023-04-24T01:07:57;15.23;;;12.53;;
75429;SDS011;64127;51.488;5.462;2023-04-24T01:10:31;14.00;;;12.27;;
75429;SDS011;64127;51.488;5.462;2023-04-24T01:13:05;14.30;;;12.70;;
75429;SDS011;64127;51.488;5.462;2023-04-24T01:15:41;14.30;;;12.50;;
75429;SDS011;64127;51.488;5.462;2023-04-24T01:18:14;15.17;;;12.63;;
75429;SDS011;64127;51.488;5.462;2023-04-24T01:20:47;15.07;;;13.27;;
75429;SDS011;64127;51.488;5.462;2023-04-24T01:23:25;17.27;;;13.30;;
75429;SDS011;64127;51.488;5.462;2023-04-24T01:25:58;16.17;;;13.67;;
75429;SDS011;64127;51.488;5.462;2023-04-24T01:28:30;16.10;;;14.50;;
75429;SDS011;64127;51.488;5.462;2023-04-24T01:31:02;16.23;;;14.53;;
75429;SDS011;64127;51.488;5.462;2023-04-24T01:33:34;17.17;;;15.03;;
75429;SDS011;64127;51.488;5.462;2023-04-24T01:36:07;16.93;;;14.93;;
75429;SDS011;64127;51.488;5.462;2023-04-24T01:38:42;20.03;;;16.40;;
75429;SDS011;64127;51.488;5.462;2023-04-24T01:41:14;19.03;;;16.73;;
75429;SDS011;64127;51.488;5.462;2023-04-24T01:43:47;18.67;;;16.70;;
75429;SDS011;64127;51.488;5.462;2023-04-24T01:46:20;19.60;;;16.87;;
75429;SDS011;64127;51.488;5.462;2023-04-24T01:48:52;19.17;;;17.27;;
75429;SDS011;64127;51.488;5.462;2023-04-24T01:51:24;19.10;;;16.97;;
75429;SDS011;64127;51.488;5.462;2023-04-24T01:53:56;19.77;;;17.67;;
75429;SDS011;64127;51.488;5.462;2023-04-24T01:56:29;21.77;;;17.87;;
75429;SDS011;64127;51.488;5.462;2023-04-24T01:59:02;19.70;;;17.70;;
75429;SDS011;64127;51.488;5.462;2023-04-24T02:01:35;20.50;;;18.33;;
75429;SDS011;64127;51.488;5.462;2023-04-24T02:04:08;22.47;;;18.63;;
75429;SDS011;64127;51.488;5.462;2023-04-24T02:06:40;19.40;;;17.47;;
75429;SDS011;64127;51.488;5.462;2023-04-24T02:09:12;20.57;;;18.33;;
75429;SDS011;64127;51.488;5.462;2023-04-24T02:11:44;20.10;;;18.20;;
75429;SDS011;64127;51.488;5.462;2023-04-24T02:14:16;20.57;;;18.37;;
75429;SDS011;64127;51.488;5.462;2023-04-24T02:16:48;20.17;;;18.07;;
75429;SDS011;64127;51.488;5.462;2023-04-24T02:19:20;20.20;;;18.13;;
75429;SDS011;64127;51.488;5.462;2023-04-24T02:21:52;21.07;;;18.87;;
75429;SDS011;64127;51.488;5.462;2023-04-24T02:24:24;20.37;;;18.23;;
75429;SDS011;64127;51.488;5.462;2023-04-24T02:26:56;20.27;;;18.23;;
75429;SDS011;64127;51.488;5.462;2023-04-24T02:29:29;19.87;;;17.83;;
75429;SDS011;64127;51.488;5.462;2023-04-24T02:32:01;21.63;;;19.33;;
75429;SDS011;64127;51.488;5.462;2023-04-24T02:34:33;20.23;;;18.13;;
75429;SDS011;64127;51.488;5.462;2023-04-24T02:37:06;19.57;;;17.70;;
75429;SDS011;64127;51.488;5.462;2023-04-24T02:39:38;19.70;;;17.67;;
75429;SDS011;64127;51.488;5.462;2023-04-24T02:42:10;19.30;;;17.37;;
75429;SDS011;64127;51.488;5.462;2023-04-24T02:44:42;19.27;;;17.33;;
75429;SDS011;64127;51.488;5.462;2023-04-24T02:47:14;19.87;;;18.00;;
75429;SDS011;64127;51.488;5.462;2023-04-24T02:49:46;20.20;;;17.80;;
75429;SDS011;64127;51.488;5.462;2023-04-24T02:52:18;19.30;;;17.30;;
75429;SDS011;64127;51.488;5.462;2023-04-24T02:54:50;20.30;;;18.20;;
75429;SDS011;64127;51.488;5.462;2023-04-24T02:57:22;18.57;;;16.77;;
75429;SDS011;64127;51.488;5.462;2023-04-24T02:59:54;19.10;;;17.20;;
75429;SDS011;64127;51.488;5.462;2023-04-24T03:02:26;18.87;;;16.93;;
75429;SDS011;64127;51.488;5.462;2023-04-24T03:04:58;18.77;;;16.80;;
75429;SDS011;64127;51.488;5.462;2023-04-24T03:07:31;18.60;;;16.70;;
75429;SDS011;64127;51.488;5.462;2023-04-24T03:10:04;17.27;;;15.67;;
75429;SDS011;64127;51.488;5.462;2023-04-24T03:12:36;18.77;;;16.97;;
75429;SDS011;64127;51.488;5.462;2023-04-24T03:15:08;18.07;;;16.27;;
75429;SDS011;64127;51.488;5.462;2023-04-24T03:17:41;18.07;;;16.40;;
75429;SDS011;64127;51.488;5.462;2023-04-24T03:20:13;17.00;;;15.40;;
75429;SDS011;64127;51.488;5.462;2023-04-24T03:22:45;17.37;;;15.30;;
75429;SDS011;64127;51.488;5.462;2023-04-24T03:25:17;15.47;;;13.77;;
75429;SDS011;64127;51.488;5.462;2023-04-24T03:27:49;17.13;;;15.33;;
75429;SDS011;64127;51.488;5.462;2023-04-24T03:30:21;17.03;;;14.60;;
75429;SDS011;64127;51.488;5.462;2023-04-24T03:32:53;16.13;;;14.57;;
75429;SDS011;64127;51.488;5.462;2023-04-24T03:35:25;17.27;;;14.07;;
75429;SDS011;64127;51.488;5.462;2023-04-24T03:37:57;15.27;;;13.70;;
75429;SDS011;64127;51.488;5.462;2023-04-24T03:40:29;17.17;;;13.90;;
75429;SDS011;64127;51.488;5.462;2023-04-24T03:43:02;17.13;;;13.80;;
75429;SDS011;64127;51.488;5.462;2023-04-24T03:45:33;16.03;;;13.20;;
75429;SDS011;64127;51.488;5.462;2023-04-24T03:48:05;14.93;;;13.33;;
75429;SDS011;64127;51.488;5.462;2023-04-24T03:50:38;14.43;;;12.93;;
75429;SDS011;64127;51.488;5.462;2023-04-24T03:53:10;13.80;;;12.40;;
75429;SDS011;64127;51.488;5.462;2023-04-24T03:55:42;14.07;;;12.63;;
75429;SDS011;64127;51.488;5.462;2023-04-24T03:58:15;14.07;;;12.63;;
75429;SDS011;64127;51.488;5.462;2023-04-24T04:00:47;12.77;;;11.47;;
75429;SDS011;64127;51.488;5.462;2023-04-24T04:03:19;13.90;;;12.50;;
75429;SDS011;64127;51.488;5.462;2023-04-24T04:05:52;13.23;;;11.93;;
75429;SDS011;64127;51.488;5.462;2023-04-24T04:08:25;13.13;;;11.83;;
75429;SDS011;64127;51.488;5.462;2023-04-24T04:10:57;13.90;;;12.50;;
75429;SDS011;64127;51.488;5.462;2023-04-24T04:13:29;13.47;;;11.83;;
75429;SDS011;64127;51.488;5.462;2023-04-24T04:16:02;13.03;;;11.77;;
75429;SDS011;64127;51.488;5.462;2023-04-24T04:18:34;13.07;;;11.77;;
75429;SDS011;64127;51.488;5.462;2023-04-24T04:21:06;13.53;;;12.13;;
75429;SDS011;64127;51.488;5.462;2023-04-24T04:23:38;14.23;;;12.73;;
75429;SDS011;64127;51.488;5.462;2023-04-24T04:26:11;13.63;;;12.20;;
75429;SDS011;64127;51.488;5.462;2023-04-24T04:28:43;12.63;;;11.40;;
75429;SDS011;64127;51.488;5.462;2023-04-24T04:31:16;12.97;;;11.73;;
75429;SDS011;64127;51.488;5.462;2023-04-24T04:33:48;12.67;;;11.57;;
75429;SDS011;64127;51.488;5.462;2023-04-24T04:36:20;13.27;;;11.97;;
75429;SDS011;64127;51.488;5.462;2023-04-24T04:38:51;11.60;;;10.60;;
75429;SDS011;64127;51.488;5.462;2023-04-24T04:41:25;12.03;;;10.83;;
75429;SDS011;64127;51.488;5.462;2023-04-24T04:43:57;12.20;;;11.10;;
75429;SDS011;64127;51.488;5.462;2023-04-24T04:46:30;12.23;;;11.02;;
75429;SDS011;64127;51.488;5.462;2023-04-24T04:49:04;11.33;;;10.33;;
75429;SDS011;64127;51.488;5.462;2023-04-24T04:51:36;12.03;;;10.93;;
75429;SDS011;64127;51.488;5.462;2023-04-24T04:54:08;11.17;;;10.07;;
75429;SDS011;64127;51.488;5.462;2023-04-24T04:56:40;10.73;;;9.77;;
75429;SDS011;64127;51.488;5.462;2023-04-24T04:59:12;10.13;;;9.33;;
75429;SDS011;64127;51.488;5.462;2023-04-24T05:01:44;10.77;;;9.77;;
75429;SDS011;64127;51.488;5.462;2023-04-24T05:04:16;9.33;;;8.53;;
75429;SDS011;64127;51.488;5.462;2023-04-24T05:06:48;10.27;;;9.03;;
75429;SDS011;64127;51.488;5.462;2023-04-24T05:09:22;9.07;;;8.17;;
75429;SDS011;64127;51.488;5.462;2023-04-24T05:11:54;9.17;;;8.47;;
75429;SDS011;64127;51.488;5.462;2023-04-24T05:14:27;8.90;;;8.20;;
75429;SDS011;64127;51.488;5.462;2023-04-24T05:16:59;9.60;;;8.70;;
75429;SDS011;64127;51.488;5.462;2023-04-24T05:19:32;9.33;;;8.53;;
75429;SDS011;64127;51.488;5.462;2023-04-24T05:22:08;9.63;;;8.83;;
75429;SDS011;64127;51.488;5.462;2023-04-24T05:24:40;8.83;;;8.13;;
75429;SDS011;64127;51.488;5.462;2023-04-24T05:27:13;7.97;;;7.27;;
75429;SDS011;64127;51.488;5.462;2023-04-24T05:29:45;7.00;;;6.40;;
75429;SDS011;64127;51.488;5.462;2023-04-24T05:32:17;6.20;;;5.70;;
75429;SDS011;64127;51.488;5.462;2023-04-24T05:34:48;5.83;;;5.30;;
75429;SDS011;64127;51.488;5.462;2023-04-24T05:37:21;4.50;;;4.10;;
75429;SDS011;64127;51.488;5.462;2023-04-24T05:39:53;3.73;;;3.03;;
75429;SDS011;64127;51.488;5.462;2023-04-24T05:42:25;4.67;;;3.00;;
75429;SDS011;64127;51.488;5.462;2023-04-24T05:44:57;4.20;;;2.60;;
75429;SDS011;64127;51.488;5.462;2023-04-24T05:47:29;3.27;;;2.67;;
75429;SDS011;64127;51.488;5.462;2023-04-24T05:50:01;4.07;;;2.37;;
75429;SDS011;64127;51.488;5.462;2023-04-24T05:52:33;3.00;;;2.47;;
75429;SDS011;64127;51.488;5.462;2023-04-24T05:55:05;3.77;;;2.37;;
75429;SDS011;64127;51.488;5.462;2023-04-24T05:57:38;2.43;;;2.23;;
75429;SDS011;64127;51.488;5.462;2023-04-24T06:00:10;2.80;;;2.40;;
75429;SDS011;64127;51.488;5.462;2023-04-24T06:02:43;4.67;;;2.47;;
75429;SDS011;64127;51.488;5.462;2023-04-24T06:05:15;2.30;;;2.10;;
75429;SDS011;64127;51.488;5.462;2023-04-24T06:07:48;2.37;;;2.17;;
75429;SDS011;64127;51.488;5.462;2023-04-24T06:10:21;2.47;;;2.23;;
75429;SDS011;64127;51.488;5.462;2023-04-24T06:12:53;3.40;;;2.27;;
75429;SDS011;64127;51.488;5.462;2023-04-24T06:15:30;3.77;;;2.80;;
75429;SDS011;64127;51.488;5.462;2023-04-24T06:18:02;3.57;;;2.90;;
75429;SDS011;64127;51.488;5.462;2023-04-24T06:20:35;3.63;;;3.33;;
75429;SDS011;64127;51.488;5.462;2023-04-24T06:23:07;4.87;;;4.07;;
75429;SDS011;64127;51.488;5.462;2023-04-24T06:25:39;4.90;;;4.33;;
75429;SDS011;64127;51.488;5.462;2023-04-24T06:28:11;5.63;;;4.77;;
75429;SDS011;64127;51.488;5.462;2023-04-24T06:30:44;5.57;;;4.83;;
75429;SDS011;64127;51.488;5.462;2023-04-24T06:33:16;5.80;;;4.80;;
75429;SDS011;64127;51.488;5.462;2023-04-24T06:35:53;5.63;;;5.13;;
75429;SDS011;64127;51.488;5.462;2023-04-24T06:38:25;6.13;;;5.47;;
75429;SDS011;64127;51.488;5.462;2023-04-24T06:40:57;6.13;;;5.63;;
75429;SDS011;64127;51.488;5.462;2023-04-24T06:43:29;6.90;;;6.20;;
75429;SDS011;64127;51.488;5.462;2023-04-24T06:46:01;7.47;;;6.77;;
75429;SDS011;64127;51.488;5.462;2023-04-24T06:48:34;7.87;;;6.57;;
75429;SDS011;64127;51.488;5.462;2023-04-24T06:51:07;10.70;;;7.50;;
75429;SDS011;64127;51.488;5.462;2023-04-24T06:53:39;8.43;;;7.63;;
75429;SDS011;64127;51.488;5.462;2023-04-24T06:56:11;9.17;;;7.83;;
75429;SDS011;64127;51.488;5.462;2023-04-24T06:58:43;9.00;;;8.07;;
75429;SDS011;64127;51.488;5.462;2023-04-24T07:01:16;10.53;;;9.20;;
75429;SDS011;64127;51.488;5.462;2023-04-24T07:03:48;11.07;;;9.30;;
75429;SDS011;64127;51.488;5.462;2023-04-24T07:06:21;13.30;;;9.70;;
75429;SDS011;64127;51.488;5.462;2023-04-24T07:08:55;13.20;;;11.17;;
75429;SDS011;64127;51.488;5.462;2023-04-24T07:11:27;14.60;;;11.37;;
75429;SDS011;64127;51.488;5.462;2023-04-24T07:14:00;12.97;;;11.43;;
75429;SDS011;64127;51.488;5.462;2023-04-24T07:16:32;14.67;;;12.13;;
75429;SDS011;64127;51.488;5.462;2023-04-24T07:19:04;13.30;;;11.47;;
75429;SDS011;64127;51.488;5.462;2023-04-24T07:21:36;13.03;;;11.10;;
75429;SDS011;64127;51.488;5.462;2023-04-24T07:24:08;13.97;;;12.13;;
75429;SDS011;64127;51.488;5.462;2023-04-24T07:26:42;14.80;;;11.40;;
75429;SDS011;64127;51.488;5.462;2023-04-24T07:29:14;13.33;;;11.77;;
75429;SDS011;64127;51.488;5.462;2023-04-24T07:31:46;13.83;;;11.83;;
75429;SDS011;64127;51.488;5.462;2023-04-24T07:34:18;14.57;;;12.10;;
75429;SDS011;64127;51.488;5.462;2023-04-24T07:36:51;13.47;;;12.03;;
75429;SDS011;64127;51.488;5.462;2023-04-24T07:39:23;14.23;;;11.93;;
75429;SDS011;64127;51.488;5.462;2023-04-24T07:41:55;12.40;;;10.90;;
75429;SDS011;64127;51.488;5.462;2023-04-24T07:44:28;11.47;;;9.87;;
75429;SDS011;64127;51.488;5.462;2023-04-24T07:47:00;11.10;;;9.17;;
75429;SDS011;64127;51.488;5.462;2023-04-24T07:49:32;10.70;;;7.87;;
75429;SDS011;64127;51.488;5.462;2023-04-24T07:52:05;15.17;;;8.13;;
75429;SDS011;64127;51.488;5.462;2023-04-24T07:54:37;13.67;;;7.07;;
75429;SDS011;64127;51.488;5.462;2023-04-24T07:57:09;11.20;;;7.33;;
75429;SDS011;64127;51.488;5.462;2023-04-24T07:59:41;13.00;;;6.67;;
75429;SDS011;64127;51.488;5.462;2023-04-24T08:02:14;12.07;;;6.30;;
75429;SDS011;64127;51.488;5.462;2023-04-24T08:04:46;13.03;;;6.70;;
75429;SDS011;64127;51.488;5.462;2023-04-24T08:07:19;13.83;;;6.50;;
75429;SDS011;64127;51.488;5.462;2023-04-24T08:09:51;14.17;;;6.87;;
75429;SDS011;64127;51.488;5.462;2023-04-24T08:12:23;13.53;;;7.27;;
75429;SDS011;64127;51.488;5.462;2023-04-24T08:14:55;12.60;;;6.30;;
75429;SDS011;64127;51.488;5.462;2023-04-24T08:17:27;11.90;;;7.20;;
75429;SDS011;64127;51.488;5.462;2023-04-24T08:19:59;15.23;;;7.13;;
75429;SDS011;64127;51.488;5.462;2023-04-24T08:22:32;13.13;;;7.60;;
75429;SDS011;64127;51.488;5.462;2023-04-24T08:25:05;14.77;;;7.70;;
75429;SDS011;64127;51.488;5.462;2023-04-24T08:27:37;18.80;;;7.60;;
75429;SDS011;64127;51.488;5.462;2023-04-24T08:30:10;16.03;;;7.47;;
75429;SDS011;64127;51.488;5.462;2023-04-24T08:32:42;15.43;;;7.23;;
75429;SDS011;64127;51.488;5.462;2023-04-24T08:35:14;14.60;;;7.67;;
75429;SDS011;64127;51.488;5.462;2023-04-24T08:37:47;17.00;;;8.30;;
75429;SDS011;64127;51.488;5.462;2023-04-24T08:40:18;19.00;;;8.63;;
75429;SDS011;64127;51.488;5.462;2023-04-24T08:43:02;14.13;;;6.93;;
75429;SDS011;64127;51.488;5.462;2023-04-24T08:45:35;13.83;;;6.93;;
75429;SDS011;64127;51.488;5.462;2023-04-24T08:48:07;13.90;;;6.43;;
75429;SDS011;64127;51.488;5.462;2023-04-24T08:50:53;15.50;;;6.50;;
75429;SDS011;64127;51.488;5.462;2023-04-24T08:53:27;13.90;;;6.20;;
75429;SDS011;64127;51.488;5.462;2023-04-24T08:55:59;12.87;;;5.97;;
75429;SDS011;64127;51.488;5.462;2023-04-24T08:58:33;13.43;;;6.23;;
75429;SDS011;64127;51.488;5.462;2023-04-24T09:01:06;11.67;;;6.07;;
75429;SDS011;64127;51.488;5.462;2023-04-24T09:03:39;11.27;;;5.93;;
75429;SDS011;64127;51.488;5.462;2023-04-24T09:06:12;12.47;;;5.50;;
75429;SDS011;64127;51.488;5.462;2023-04-24T09:08:45;13.93;;;5.43;;
75429;SDS011;64127;51.488;5.462;2023-04-24T09:11:18;11.20;;;5.03;;
75429;SDS011;64127;51.488;5.462;2023-04-24T09:13:50;10.80;;;4.67;;
75429;SDS011;64127;51.488;5.462;2023-04-24T09:16:23;9.00;;;4.57;;
75429;SDS011;64127;51.488;5.462;2023-04-24T09:18:57;11.10;;;4.30;;
75429;SDS011;64127;51.488;5.462;2023-04-24T09:21:33;8.77;;;4.00;;
75429;SDS011;64127;51.488;5.462;2023-04-24T09:24:07;9.90;;;4.43;;
75429;SDS011;64127;51.488;5.462;2023-04-24T09:26:55;8.70;;;3.93;;
75429;SDS011;64127;51.488;5.462;2023-04-24T09:29:30;8.53;;;4.10;;
75429;SDS011;64127;51.488;5.462;2023-04-24T09:32:20;11.80;;;4.13;;
75429;SDS011;64127;51.488;5.462;2023-04-24T09:35:06;10.67;;;4.30;;
75429;SDS011;64127;51.488;5.462;2023-04-24T09:37:46;10.57;;;4.07;;
75429;SDS011;64127;51.488;5.462;2023-04-24T09:40:20;12.43;;;4.30;;
75429;SDS011;64127;51.488;5.462;2023-04-24T09:42:56;10.63;;;3.90;;
75429;SDS011;64127;51.488;5.462;2023-04-24T09:45:35;12.03;;;4.03;;
75429;SDS011;64127;51.488;5.462;2023-04-24T09:48:11;6.57;;;3.27;;
75429;SDS011;64127;51.488;5.462;2023-04-24T09:50:45;9.00;;;3.60;;
75429;SDS011;64127;51.488;5.462;2023-04-24T09:53:18;7.80;;;3.50;;
75429;SDS011;64127;51.488;5.462;2023-04-24T09:56:01;13.43;;;3.90;;
75429;SDS011;64127;51.488;5.462;2023-04-24T09:58:38;6.37;;;2.90;;
75429;SDS011;64127;51.488;5.462;2023-04-24T10:01:10;9.00;;;3.20;;
75429;SDS011;64127;51.488;5.462;2023-04-24T10:03:42;9.87;;;3.10;;
75429;SDS011;64127;51.488;5.462;2023-04-24T10:06:16;9.70;;;3.50;;
75429;SDS011;64127;51.488;5.462;2023-04-24T10:08:48;6.83;;;3.10;;
75429;SDS011;64127;51.488;5.462;2023-04-24T10:11:22;8.10;;;3.10;;
75429;SDS011;64127;51.488;5.462;2023-04-24T10:13:54;8.53;;;2.93;;
75429;SDS011;64127;51.488;5.462;2023-04-24T10:16:28;7.60;;;3.03;;
75429;SDS011;64127;51.488;5.462;2023-04-24T10:19:02;6.40;;;2.90;;
75429;SDS011;64127;51.488;5.462;2023-04-24T10:21:34;8.87;;;2.70;;
75429;SDS011;64127;51.488;5.462;2023-04-24T10:24:09;8.27;;;2.70;;
75429;SDS011;64127;51.488;5.462;2023-04-24T10:26:44;5.93;;;2.50;;
75429;SDS011;64127;51.488;5.462;2023-04-24T10:29:17;6.33;;;2.53;;
75429;SDS011;64127;51.488;5.462;2023-04-24T10:31:50;9.80;;;2.37;;
75429;SDS011;64127;51.488;5.462;2023-04-24T10:34:23;9.37;;;2.80;;
75429;SDS011;64127;51.488;5.462;2023-04-24T10:36:56;6.80;;;2.23;;
75429;SDS011;64127;51.488;5.462;2023-04-24T10:39:29;3.50;;;1.90;;
75429;SDS011;64127;51.488;5.462;2023-04-24T10:42:02;6.03;;;2.17;;
75429;SDS011;64127;51.488;5.462;2023-04-24T10:44:49;2.67;;;1.73;;
75429;SDS011;64127;51.488;5.462;2023-04-24T10:47:21;2.87;;;1.60;;
75429;SDS011;64127;51.488;5.462;2023-04-24T10:49:54;3.27;;;1.50;;
75429;SDS011;64127;51.488;5.462;2023-04-24T10:52:44;4.53;;;1.50;;
75429;SDS011;64127;51.488;5.462;2023-04-24T10:58:13;5.40;;;1.83;;
75429;SDS011;64127;51.488;5.462;2023-04-24T11:00:57;4.47;;;1.60;;
75429;SDS011;64127;51.488;5.462;2023-04-24T11:03:32;4.73;;;1.83;;
75429;SDS011;64127;51.488;5.462;2023-04-24T11:06:07;5.37;;;1.97;;
75429;SDS011;64127;51.488;5.462;2023-04-24T11:08:44;4.23;;;1.70;;
75429;SDS011;64127;51.488;5.462;2023-04-24T11:11:17;3.27;;;1.53;;
75429;SDS011;64127;51.488;5.462;2023-04-24T11:16:30;2.70;;;1.33;;
75429;SDS011;64127;51.488;5.462;2023-04-24T11:19:29;4.53;;;1.60;;
75429;SDS011;64127;51.488;5.462;2023-04-24T11:22:02;4.60;;;1.60;;
75429;SDS011;64127;51.488;5.462;2023-04-24T11:27:18;3.77;;;1.57;;
75429;SDS011;64127;51.488;5.462;2023-04-24T11:32:46;2.10;;;1.40;;
75429;SDS011;64127;51.488;5.462;2023-04-24T11:35:22;3.47;;;1.60;;
75429;SDS011;64127;51.488;5.462;2023-04-24T11:37:59;5.17;;;1.80;;
75429;SDS011;64127;51.488;5.462;2023-04-24T11:40:54;4.73;;;1.70;;
75429;SDS011;64127;51.488;5.462;2023-04-24T11:43:28;5.33;;;1.80;;
75429;SDS011;64127;51.488;5.462;2023-04-24T11:46:03;3.13;;;1.63;;
75429;SDS011;64127;51.488;5.462;2023-04-24T11:48:37;4.43;;;1.40;;
75429;SDS011;64127;51.488;5.462;2023-04-24T11:51:12;4.90;;;1.63;;
75429;SDS011;64127;51.488;5.462;2023-04-24T11:53:47;6.90;;;1.47;;
75429;SDS011;64127;51.488;5.462;2023-04-24T11:56:31;3.80;;;1.57;;
75429;SDS011;64127;51.488;5.462;2023-04-24T11:59:04;3.60;;;1.60;;
75429;SDS011;64127;51.488;5.462;2023-04-24T12:01:43;5.07;;;1.80;;
75429;SDS011;64127;51.488;5.462;2023-04-24T12:04:17;2.67;;;1.30;;
75429;SDS011;64127;51.488;5.462;2023-04-24T12:07:03;3.93;;;1.40;;
75429;SDS011;64127;51.488;5.462;2023-04-24T12:12:18;4.80;;;1.50;;
75429;SDS011;64127;51.488;5.462;2023-04-24T12:14:53;4.70;;;1.50;;
75429;SDS011;64127;51.488;5.462;2023-04-24T12:17:31;3.93;;;1.70;;
75429;SDS011;64127;51.488;5.462;2023-04-24T12:20:05;2.57;;;1.50;;
75429;SDS011;64127;51.488;5.462;2023-04-24T12:22:50;2.97;;;1.40;;
75429;SDS011;64127;51.488;5.462;2023-04-24T12:25:26;2.83;;;1.40;;
75429;SDS011;64127;51.488;5.462;2023-04-24T12:33:19;3.40;;;1.40;;
75429;SDS011;64127;51.488;5.462;2023-04-24T12:35:53;2.40;;;1.40;;
75429;SDS011;64127;51.488;5.462;2023-04-24T12:38:27;3.57;;;1.30;;
75429;SDS011;64127;51.488;5.462;2023-04-24T12:41:02;2.63;;;1.30;;
75429;SDS011;64127;51.488;5.462;2023-04-24T12:43:36;2.03;;;1.30;;
75429;SDS011;64127;51.488;5.462;2023-04-24T12:46:09;3.07;;;1.40;;
75429;SDS011;64127;51.488;5.462;2023-04-24T12:48:41;3.37;;;1.50;;
75429;SDS011;64127;51.488;5.462;2023-04-24T12:51:13;1.60;;;1.30;;
75429;SDS011;64127;51.488;5.462;2023-04-24T12:53:45;3.17;;;1.50;;
75429;SDS011;64127;51.488;5.462;2023-04-24T12:56:17;2.67;;;1.23;;
75429;SDS011;64127;51.488;5.462;2023-04-24T12:58:49;2.67;;;1.10;;
75429;SDS011;64127;51.488;5.462;2023-04-24T13:01:23;2.33;;;1.03;;
75429;SDS011;64127;51.488;5.462;2023-04-24T13:03:55;2.40;;;1.20;;
75429;SDS011;64127;51.488;5.462;2023-04-24T13:06:27;2.50;;;1.23;;
75429;SDS011;64127;51.488;5.462;2023-04-24T13:08:59;2.13;;;1.10;;
75429;SDS011;64127;51.488;5.462;2023-04-24T13:11:31;2.80;;;1.30;;
75429;SDS011;64127;51.488;5.462;2023-04-24T13:14:03;2.37;;;1.30;;
75429;SDS011;64127;51.488;5.462;2023-04-24T13:16:35;2.90;;;1.37;;
75429;SDS011;64127;51.488;5.462;2023-04-24T13:19:08;3.57;;;1.30;;
75429;SDS011;64127;51.488;5.462;2023-04-24T13:21:40;2.63;;;1.53;;
75429;SDS011;64127;51.488;5.462;2023-04-24T13:24:12;5.07;;;1.83;;
75429;SDS011;64127;51.488;5.462;2023-04-24T13:26:44;1.87;;;1.10;;
75429;SDS011;64127;51.488;5.462;2023-04-24T13:29:17;3.40;;;1.60;;
75429;SDS011;64127;51.488;5.462;2023-04-24T13:31:52;3.73;;;1.27;;
75429;SDS011;64127;51.488;5.462;2023-04-24T13:34:28;2.77;;;1.47;;
75429;SDS011;64127;51.488;5.462;2023-04-24T13:37:01;3.23;;;1.80;;
75429;SDS011;64127;51.488;5.462;2023-04-24T13:39:34;2.70;;;1.57;;
75429;SDS011;64127;51.488;5.462;2023-04-24T13:42:06;2.93;;;1.60;;
75429;SDS011;64127;51.488;5.462;2023-04-24T13:44:39;3.77;;;1.70;;
75429;SDS011;64127;51.488;5.462;2023-04-24T13:47:11;4.43;;;1.80;;
75429;SDS011;64127;51.488;5.462;2023-04-24T13:49:43;4.70;;;1.70;;
75429;SDS011;64127;51.488;5.462;2023-04-24T13:52:15;2.60;;;1.77;;
75429;SDS011;64127;51.488;5.462;2023-04-24T13:54:48;4.27;;;1.80;;
75429;SDS011;64127;51.488;5.462;2023-04-24T13:57:20;3.70;;;1.83;;
75429;SDS011;64127;51.488;5.462;2023-04-24T13:59:52;2.67;;;1.80;;
75429;SDS011;64127;51.488;5.462;2023-04-24T14:02:24;5.93;;;2.20;;
75429;SDS011;64127;51.488;5.462;2023-04-24T14:04:56;3.27;;;2.00;;
75429;SDS011;64127;51.488;5.462;2023-04-24T14:07:29;7.63;;;2.13;;
75429;SDS011;64127;51.488;5.462;2023-04-24T14:10:01;3.87;;;2.10;;
75429;SDS011;64127;51.488;5.462;2023-04-24T14:12:33;3.80;;;1.97;;
75429;SDS011;64127;51.488;5.462;2023-04-24T14:15:05;3.83;;;2.00;;
75429;SDS011;64127;51.488;5.462;2023-04-24T14:17:39;2.73;;;1.80;;
75429;SDS011;64127;51.488;5.462;2023-04-24T14:20:12;3.23;;;1.87;;
75429;SDS011;64127;51.488;5.462;2023-04-24T14:22:44;3.07;;;1.83;;
75429;SDS011;64127;51.488;5.462;2023-04-24T14:25:16;3.33;;;1.77;;
75429;SDS011;64127;51.488;5.462;2023-04-24T14:27:48;3.57;;;1.87;;
75429;SDS011;64127;51.488;5.462;2023-04-24T14:30:20;3.53;;;1.87;;
75429;SDS011;64127;51.488;5.462;2023-04-24T14:32:52;4.23;;;2.07;;
75429;SDS011;64127;51.488;5.462;2023-04-24T14:35:25;4.27;;;1.73;;
75429;SDS011;64127;51.488;5.462;2023-04-24T14:37:58;2.83;;;1.63;;
75429;SDS011;64127;51.488;5.462;2023-04-24T14:40:31;3.87;;;1.67;;
75429;SDS011;64127;51.488;5.462;2023-04-24T14:43:06;3.07;;;1.60;;
75429;SDS011;64127;51.488;5.462;2023-04-24T14:45:38;3.83;;;1.67;;
75429;SDS011;64127;51.488;5.462;2023-04-24T14:48:12;2.60;;;1.90;;
75429;SDS011;64127;51.488;5.462;2023-04-24T14:50:44;3.57;;;1.40;;
75429;SDS011;64127;51.488;5.462;2023-04-24T14:53:16;3.90;;;1.80;;
75429;SDS011;64127;51.488;5.462;2023-04-24T14:55:48;2.27;;;1.50;;
75429;SDS011;64127;51.488;5.462;2023-04-24T14:58:20;2.77;;;1.70;;
75429;SDS011;64127;51.488;5.462;2023-04-24T15:00:53;2.73;;;1.70;;
75429;SDS011;64127;51.488;5.462;2023-04-24T15:03:25;4.17;;;1.70;;
75429;SDS011;64127;51.488;5.462;2023-04-24T15:05:58;2.30;;;1.70;;
75429;SDS011;64127;51.488;5.462;2023-04-24T15:08:30;4.20;;;1.80;;
75429;SDS011;64127;51.488;5.462;2023-04-24T15:11:02;3.73;;;2.00;;
75429;SDS011;64127;51.488;5.462;2023-04-24T15:13:35;2.17;;;1.50;;
75429;SDS011;64127;51.488;5.462;2023-04-24T15:16:07;2.60;;;1.67;;
75429;SDS011;64127;51.488;5.462;2023-04-24T15:18:39;2.67;;;1.80;;
75429;SDS011;64127;51.488;5.462;2023-04-24T15:21:11;3.17;;;1.83;;
75429;SDS011;64127;51.488;5.462;2023-04-24T15:23:44;3.57;;;1.70;;
75429;SDS011;64127;51.488;5.462;2023-04-24T15:26:16;3.33;;;1.60;;
75429;SDS011;64127;51.488;5.462;2023-04-24T15:28:49;4.27;;;1.50;;
75429;SDS011;64127;51.488;5.462;2023-04-24T15:31:22;3.90;;;1.70;;